Terminal Aerodrome Forecast
Issued by NWS Omaha/Valley, NE

Home | Current Version | Previous Version | Graphics & Text | Print | Product List | Glossary On
Versions: 1 2 3 4 5 6 7 8 9 10 11 12 13 14 15 16 17 18 19 20 21 22 23 24 25 26 27 28 29 30 31 32 33
126
FTUS43 KOAX 161120
TAFOFK
TAF
KOFK 161120Z 1612/1712 32008KT P6SM SKC
     FM161600 25005KT P6SM SKC
     FM161900 21010KT P6SM SKC
     FM170200 19011KT P6SM FEW250 WS020/22040KT
     FM170700 20013KT P6SM BKN090 WS020/23045KT=

USA.gov is the U.S. government's official web portal to all federal, state and local government web resources and services.